Time;durP1;ratioP1;P1;durP2;ratioP2;P2;SDS_P1;SDS_P2;PMS_P1;PMS_P2;Temp;Humidity;BMP_temperature;BMP_pressure;BME280_temperature;BME280_humidity;BME280_pressure;Samples;Min_cycle;Max_cycle;Signal;HPM_P1;HPM_P2
2022/09/16 00:01:44;;;;;;;3.15;2.30;;;;;;;;;;1765034;80;21003;-62
2022/09/16 00:04:10;;;;;;;2.83;2.52;;;;;;;;;;1779411;80;21495;-62
2022/09/16 00:06:36;;;;;;;2.72;2.20;;;;;;;;;;1762960;80;21224;-62
2022/09/16 00:09:02;;;;;;;3.90;2.45;;;;;;;;;;1757566;80;21037;-62
2022/09/16 00:11:32;;;;;;;3.75;2.47;;;;;;;;;;1761916;80;21111;-62
2022/09/16 00:13:58;;;;;;;3.62;2.60;;;;;;;;;;1763769;80;20957;-62
2022/09/16 00:16:24;;;;;;;3.30;2.47;;;;;;;;;;1760543;80;20979;-62
2022/09/16 00:18:57;;;;;;;3.15;2.52;;;;;;;;;;1756988;80;21020;-62
2022/09/16 00:21:23;;;;;;;3.95;2.90;;;;;;;;;;1760054;80;21031;-62
2022/09/16 00:23:49;;;;;;;4.87;2.70;;;;;;;;;;1759616;80;20992;-63
2022/09/16 00:26:16;;;;;;;5.28;3.10;;;;;;;;;;1756379;80;21015;-63
2022/09/16 00:28:42;;;;;;;4.25;2.92;;;;;;;;;;1762315;80;20980;-63
2022/09/16 00:31:08;;;;;;;4.20;2.87;;;;;;;;;;1759288;80;21115;-63
2022/09/16 00:33:34;;;;;;;5.30;3.30;;;;;;;;;;1760089;80;21018;-63
2022/09/16 00:36:05;;;;;;;5.25;2.95;;;;;;;;;;1759383;80;21108;-63
2022/09/16 00:38:31;;;;;;;4.95;3.05;;;;;;;;;;1753976;80;21048;-63
2022/09/16 00:40:58;;;;;;;4.25;2.83;;;;;;;;;;1750240;81;20992;-63
2022/09/16 00:43:24;;;;;;;3.92;3.10;;;;;;;;;;1746804;81;21004;-64
2022/09/16 00:45:52;;;;;;;4.33;2.90;;;;;;;;;;1749924;81;20969;-63
2022/09/16 00:48:18;;;;;;;3.55;2.87;;;;;;;;;;1749763;81;21483;-63
2022/09/16 00:50:47;;;;;;;3.85;2.85;;;;;;;;;;1743858;81;21023;-64
2022/09/16 00:53:15;;;;;;;4.17;3.00;;;;;;;;;;1744171;81;21000;-64
2022/09/16 00:55:41;;;;;;;4.67;2.80;;;;;;;;;;1746604;80;21110;-63
2022/09/16 00:58:25;;;;;;;4.15;3.02;;;;;;;;;;1746745;81;21013;-63
2022/09/16 01:03:45;;;;;;;4.30;3.00;;;;;;;;;;1746241;79;21187;-66
2022/09/16 01:06:12;;;;;;;4.67;3.22;;;;;;;;;;1723393;81;21063;-66
2022/09/16 01:08:39;;;;;;;5.00;3.05;;;;;;;;;;1729178;81;21578;-65
2022/09/16 01:11:05;;;;;;;3.70;2.90;;;;;;;;;;1725979;81;21084;-65
2022/09/16 01:13:32;;;;;;;4.03;3.00;;;;;;;;;;1727436;81;21014;-65
2022/09/16 01:16:00;;;;;;;3.65;2.90;;;;;;;;;;1728041;81;21721;-65
2022/09/16 01:18:32;;;;;;;3.85;2.70;;;;;;;;;;1721800;81;21051;-66
2022/09/16 01:21:12;;;;;;;3.45;2.52;;;;;;;;;;1723905;81;21083;-67
2022/09/16 01:23:57;;;;;;;5.60;3.27;;;;;;;;;;1723766;81;21092;-67
2022/09/16 01:26:34;;;;;;;6.00;3.40;;;;;;;;;;1725468;81;21069;-67
2022/09/16 01:29:02;;;;;;;3.90;2.92;;;;;;;;;;1722747;81;21559;-66
2022/09/16 01:31:45;;;;;;;4.30;2.98;;;;;;;;;;1729811;81;21054;-66
2022/09/16 01:34:25;;;;;;;4.03;2.97;;;;;;;;;;1724591;81;21057;-67
2022/09/16 01:36:53;;;;;;;4.83;3.42;;;;;;;;;;1723333;81;21053;-67
2022/09/16 01:39:24;;;;;;;5.35;3.60;;;;;;;;;;1721899;81;21103;-65
2022/09/16 01:42:09;;;;;;;6.00;3.55;;;;;;;;;;1727355;81;21099;-65
2022/09/16 01:44:55;;;;;;;4.45;2.95;;;;;;;;;;1723599;81;21056;-67
2022/09/16 01:47:23;;;;;;;4.72;3.47;;;;;;;;;;1723308;81;21109;-65
2022/09/16 01:49:51;;;;;;;6.53;3.62;;;;;;;;;;1724454;81;21042;-65
2022/09/16 01:52:19;;;;;;;4.50;3.40;;;;;;;;;;1729076;81;21052;-66
2022/09/16 01:54:47;;;;;;;4.83;3.12;;;;;;;;;;1720929;81;21631;-66
2022/09/16 01:57:18;;;;;;;5.50;3.62;;;;;;;;;;1726815;81;21517;-66
2022/09/16 01:59:47;;;;;;;6.55;3.25;;;;;;;;;;1724324;81;21010;-66
2022/09/16 02:02:17;;;;;;;5.62;3.33;;;;;;;;;;1712985;81;21065;-66
2022/09/16 02:04:45;;;;;;;6.58;3.55;;;;;;;;;;1758917;79;21067;-66
2022/09/16 02:07:12;;;;;;;4.28;3.33;;;;;;;;;;1754026;80;21040;-66
2022/09/16 02:09:40;;;;;;;5.55;3.58;;;;;;;;;;1732038;80;22354;-66
2022/09/16 02:12:07;;;;;;;5.75;3.67;;;;;;;;;;1760700;80;21051;-66
2022/09/16 02:14:34;;;;;;;4.45;3.58;;;;;;;;;;1758736;80;22339;-66
2022/09/16 02:17:02;;;;;;;5.35;3.30;;;;;;;;;;1758038;80;21051;-66
2022/09/16 02:19:30;;;;;;;5.47;3.10;;;;;;;;;;1757322;80;21064;-66
2022/09/16 02:21:56;;;;;;;6.42;3.20;;;;;;;;;;1757315;80;21606;-66
2022/09/16 02:24:23;;;;;;;4.90;3.30;;;;;;;;;;1758829;80;21063;-66
2022/09/16 02:26:51;;;;;;;5.10;3.27;;;;;;;;;;1754816;80;21037;-66
2022/09/16 02:29:22;;;;;;;5.85;3.55;;;;;;;;;;1756387;79;21080;-66
2022/09/16 02:31:48;;;;;;;4.05;3.22;;;;;;;;;;1756455;80;21097;-66
2022/09/16 02:34:15;;;;;;;4.67;2.67;;;;;;;;;;1775284;80;21036;-66
2022/09/16 02:36:43;;;;;;;5.40;3.12;;;;;;;;;;1781939;80;20992;-65
2022/09/16 02:39:09;;;;;;;3.75;3.00;;;;;;;;;;1770000;80;21488;-65
2022/09/16 02:41:36;;;;;;;5.62;3.35;;;;;;;;;;1781224;80;20990;-66
2022/09/16 02:44:02;;;;;;;5.55;3.45;;;;;;;;;;1771263;80;21508;-66
2022/09/16 02:46:33;;;;;;;6.72;3.90;;;;;;;;;;1766269;80;21044;-66
2022/09/16 02:49:15;;;;;;;5.85;3.58;;;;;;;;;;1761379;81;21083;-66
2022/09/16 02:51:43;;;;;;;6.22;3.60;;;;;;;;;;1772355;80;21515;-66
2022/09/16 02:54:11;;;;;;;6.50;3.70;;;;;;;;;;1778116;80;21080;-66
2022/09/16 02:56:38;;;;;;;5.92;3.60;;;;;;;;;;1774478;80;21052;-66
2022/09/16 02:59:05;;;;;;;4.47;3.42;;;;;;;;;;1771471;80;21037;-66
2022/09/16 03:01:32;;;;;;;5.00;3.58;;;;;;;;;;1777534;80;21031;-66
2022/09/16 03:03:58;;;;;;;5.03;3.70;;;;;;;;;;1763094;80;21072;-66
2022/09/16 03:06:25;;;;;;;3.58;2.95;;;;;;;;;;1758116;80;21036;-66
2022/09/16 03:08:52;;;;;;;4.45;3.37;;;;;;;;;;1761614;80;21169;-66
2022/09/16 03:11:28;;;;;;;4.12;3.20;;;;;;;;;;1756915;80;21028;-66
2022/09/16 03:14:12;;;;;;;5.30;3.22;;;;;;;;;;1756278;80;21075;-66
2022/09/16 03:16:52;;;;;;;5.53;3.72;;;;;;;;;;1767096;80;21491;-66
2022/09/16 03:19:38;;;;;;;8.18;3.52;;;;;;;;;;1766273;80;21076;-66
2022/09/16 03:22:09;;;;;;;5.22;3.60;;;;;;;;;;1776692;80;21021;-66
2022/09/16 03:24:40;;;;;;;4.70;3.33;;;;;;;;;;1766292;80;21087;-66
2022/09/16 03:27:08;;;;;;;4.37;3.10;;;;;;;;;;1761398;80;21032;-66
2022/09/16 03:29:39;;;;;;;3.90;3.12;;;;;;;;;;1768711;81;22017;-66
2022/09/16 03:32:10;;;;;;;6.20;3.42;;;;;;;;;;1763636;80;21040;-66
2022/09/16 03:34:41;;;;;;;4.58;3.45;;;;;;;;;;1783958;80;21048;-66
2022/09/16 03:37:08;;;;;;;5.40;3.45;;;;;;;;;;1765623;80;21007;-66
2022/09/16 03:39:34;;;;;;;7.22;3.52;;;;;;;;;;1764469;80;21496;-66
2022/09/16 03:42:01;;;;;;;5.10;3.02;;;;;;;;;;1776253;80;21056;-66
2022/09/16 03:44:32;;;;;;;5.53;3.33;;;;;;;;;;1783767;80;21062;-66
2022/09/16 03:46:58;;;;;;;4.58;3.58;;;;;;;;;;1775188;80;21063;-66
2022/09/16 03:49:24;;;;;;;4.72;3.35;;;;;;;;;;1772315;80;21005;-66
2022/09/16 03:51:50;;;;;;;3.47;2.83;;;;;;;;;;1771098;80;21020;-66
2022/09/16 03:54:17;;;;;;;5.45;3.67;;;;;;;;;;1772810;80;21005;-67
2022/09/16 03:56:43;;;;;;;4.10;3.20;;;;;;;;;;1767918;80;21033;-66
2022/09/16 03:59:09;;;;;;;4.47;3.37;;;;;;;;;;1774326;80;21079;-67
2022/09/16 04:01:35;;;;;;;4.62;3.67;;;;;;;;;;1768413;80;21087;-66
2022/09/16 04:04:02;;;;;;;6.10;3.77;;;;;;;;;;1769286;79;21091;-66
2022/09/16 04:06:28;;;;;;;5.80;3.40;;;;;;;;;;1754313;80;21028;-67
2022/09/16 04:08:59;;;;;;;4.83;3.60;;;;;;;;;;1756415;80;21077;-66
2022/09/16 04:11:23;;;;;;;5.15;3.37;;;;;;;;;;1696180;83;21019;-67
2022/09/16 04:13:49;;;;;;;4.35;3.35;;;;;;;;;;1689793;84;21565;-67
2022/09/16 04:16:20;;;;;;;4.92;3.42;;;;;;;;;;1711393;83;21049;-67
2022/09/16 04:18:46;;;;;;;4.17;3.22;;;;;;;;;;1703634;82;21012;-66
2022/09/16 04:21:12;;;;;;;4.95;3.55;;;;;;;;;;1674322;84;21063;-67
2022/09/16 04:23:38;;;;;;;4.80;3.67;;;;;;;;;;1694230;83;22328;-67
2022/09/16 04:26:04;;;;;;;6.50;3.67;;;;;;;;;;1738954;81;21059;-66
2022/09/16 04:28:31;;;;;;;6.72;4.12;;;;;;;;;;1739674;81;21067;-67
2022/09/16 04:31:05;;;;;;;5.85;3.83;;;;;;;;;;1704914;83;22237;-66
2022/09/16 04:33:31;;;;;;;5.85;3.80;;;;;;;;;;1683505;84;21089;-66
2022/09/16 04:36:01;;;;;;;5.97;3.92;;;;;;;;;;1731979;81;21083;-67
2022/09/16 04:38:27;;;;;;;5.35;3.92;;;;;;;;;;1731290;81;21095;-67
2022/09/16 04:40:56;;;;;;;7.22;4.10;;;;;;;;;;1743374;81;21558;-66
2022/09/16 04:43:23;;;;;;;7.55;4.22;;;;;;;;;;1741794;81;21566;-66
2022/09/16 04:45:50;;;;;;;6.70;4.25;;;;;;;;;;1703875;83;21070;-66
2022/09/16 04:48:16;;;;;;;7.55;4.00;;;;;;;;;;1738595;81;21043;-68
2022/09/16 04:50:43;;;;;;;4.92;3.75;;;;;;;;;;1703554;83;20986;-68
2022/09/16 04:53:09;;;;;;;5.40;3.95;;;;;;;;;;1740265;81;21050;-66
2022/09/16 04:55:36;;;;;;;5.28;3.77;;;;;;;;;;1704222;83;21022;-66
2022/09/16 04:58:02;;;;;;;6.87;4.08;;;;;;;;;;1686349;84;20975;-66
2022/09/16 05:00:28;;;;;;;5.08;3.60;;;;;;;;;;1739961;81;21007;-66
2022/09/16 05:02:55;;;;;;;5.42;3.85;;;;;;;;;;1739268;81;21115;-66
2022/09/16 05:05:21;;;;;;;4.78;3.45;;;;;;;;;;1755484;79;22416;-66
2022/09/16 05:07:47;;;;;;;5.60;3.92;;;;;;;;;;1769409;79;21106;-66
2022/09/16 05:10:14;;;;;;;4.95;3.67;;;;;;;;;;1768561;79;22058;-66
2022/09/16 05:12:40;;;;;;;4.62;3.22;;;;;;;;;;1771309;79;21051;-67
2022/09/16 05:15:08;;;;;;;4.75;3.27;;;;;;;;;;1769058;79;21067;-66
2022/09/16 05:17:34;;;;;;;7.25;3.47;;;;;;;;;;1781336;79;20984;-67
2022/09/16 05:20:01;;;;;;;5.08;3.55;;;;;;;;;;1780360;79;21013;-66
2022/09/16 05:22:27;;;;;;;4.78;3.83;;;;;;;;;;1780543;79;21044;-66
2022/09/16 05:24:54;;;;;;;5.25;3.65;;;;;;;;;;1787578;79;21040;-67
2022/09/16 05:27:21;;;;;;;4.42;3.47;;;;;;;;;;1779033;79;21078;-67
2022/09/16 05:29:47;;;;;;;4.87;3.60;;;;;;;;;;1766390;81;21033;-66
2022/09/16 05:32:13;;;;;;;5.60;3.25;;;;;;;;;;1777599;79;21137;-67
2022/09/16 05:34:39;;;;;;;4.90;3.47;;;;;;;;;;1776306;79;21571;-67
2022/09/16 05:37:06;;;;;;;5.90;3.75;;;;;;;;;;1777947;80;21072;-67
2022/09/16 05:39:32;;;;;;;5.58;3.58;;;;;;;;;;1776339;80;21029;-67
2022/09/16 05:41:59;;;;;;;5.50;3.55;;;;;;;;;;1783483;80;21515;-67
2022/09/16 05:44:25;;;;;;;5.35;4.03;;;;;;;;;;1772248;79;21808;-67
2022/09/16 05:46:52;;;;;;;4.62;3.62;;;;;;;;;;1768642;79;21076;-67
2022/09/16 05:49:19;;;;;;;5.42;3.70;;;;;;;;;;1772899;79;21570;-67
2022/09/16 05:51:47;;;;;;;5.65;3.90;;;;;;;;;;1774359;79;21098;-67
2022/09/16 05:54:13;;;;;;;5.78;3.80;;;;;;;;;;1775717;79;21830;-66
2022/09/16 05:56:39;;;;;;;6.90;3.85;;;;;;;;;;1771227;80;21002;-66
2022/09/16 05:59:05;;;;;;;4.92;3.47;;;;;;;;;;1774920;79;21056;-66
2022/09/16 06:01:33;;;;;;;7.05;4.00;;;;;;;;;;1782005;79;21091;-66
2022/09/16 06:04:00;;;;;;;6.35;4.10;;;;;;;;;;1780201;79;21020;-66
2022/09/16 06:06:28;;;;;;;5.42;4.00;;;;;;;;;;1765889;80;21492;-67
2022/09/16 06:08:58;;;;;;;5.17;3.83;;;;;;;;;;1777682;80;21057;-66
2022/09/16 06:11:25;;;;;;;5.87;4.10;;;;;;;;;;1782662;80;21013;-67
2022/09/16 06:13:54;;;;;;;6.20;4.17;;;;;;;;;;1772965;79;21515;-67
2022/09/16 06:16:21;;;;;;;4.90;3.67;;;;;;;;;;1781127;80;21052;-67
2022/09/16 06:18:47;;;;;;;5.60;4.33;;;;;;;;;;1772383;80;21083;-67
2022/09/16 06:21:14;;;;;;;6.42;4.33;;;;;;;;;;1742867;81;21571;-67
2022/09/16 06:23:40;;;;;;;6.25;4.28;;;;;;;;;;1777439;80;21065;-68
2022/09/16 06:26:07;;;;;;;5.55;4.33;;;;;;;;;;1777109;80;21008;-67
2022/09/16 06:28:34;;;;;;;6.03;4.17;;;;;;;;;;1782729;80;21075;-67
2022/09/16 06:31:01;;;;;;;6.92;4.45;;;;;;;;;;1775212;80;21044;-67
2022/09/16 06:33:27;;;;;;;5.45;4.22;;;;;;;;;;1769283;80;21575;-67
2022/09/16 06:35:55;;;;;;;6.45;4.80;;;;;;;;;;1775119;80;21008;-67
2022/09/16 06:38:21;;;;;;;6.97;4.47;;;;;;;;;;1783232;80;21079;-67
2022/09/16 06:40:49;;;;;;;5.03;3.80;;;;;;;;;;1771148;80;21071;-67
2022/09/16 06:43:15;;;;;;;6.60;4.40;;;;;;;;;;1778256;80;21032;-68
2022/09/16 06:45:42;;;;;;;5.92;4.45;;;;;;;;;;1779675;80;21052;-65
2022/09/16 06:48:08;;;;;;;9.75;5.20;;;;;;;;;;1767585;80;21036;-65
2022/09/16 06:50:34;;;;;;;6.83;4.45;;;;;;;;;;1783849;80;21031;-67
2022/09/16 06:53:00;;;;;;;5.30;4.05;;;;;;;;;;1747599;81;21571;-67
2022/09/16 06:55:27;;;;;;;6.55;4.87;;;;;;;;;;1735915;81;21032;-67
2022/09/16 06:57:55;;;;;;;6.30;4.40;;;;;;;;;;1740907;81;21054;-66
2022/09/16 07:00:21;;;;;;;7.17;5.28;;;;;;;;;;1747571;81;21078;-66
2022/09/16 07:02:47;;;;;;;6.78;5.03;;;;;;;;;;1729281;81;21107;-66
2022/09/16 07:05:13;;;;;;;7.28;5.00;;;;;;;;;;1769651;81;21032;-66
2022/09/16 07:07:41;;;;;;;7.62;4.40;;;;;;;;;;1779217;80;21028;-66
2022/09/16 07:10:09;;;;;;;6.37;4.42;;;;;;;;;;1765828;80;21078;-67
2022/09/16 07:12:35;;;;;;;7.55;4.95;;;;;;;;;;1768845;80;22179;-67
2022/09/16 07:15:03;;;;;;;7.20;5.17;;;;;;;;;;1762036;80;21056;-66
2022/09/16 07:17:29;;;;;;;6.58;4.45;;;;;;;;;;1769764;80;21511;-67
2022/09/16 07:19:55;;;;;;;5.50;4.65;;;;;;;;;;1760907;80;21117;-66
2022/09/16 07:22:21;;;;;;;8.08;5.28;;;;;;;;;;1767347;80;21044;-66
2022/09/16 07:24:48;;;;;;;5.97;4.62;;;;;;;;;;1747261;80;21504;-66
2022/09/16 07:27:14;;;;;;;7.40;4.78;;;;;;;;;;1772763;80;21000;-65
2022/09/16 07:29:40;;;;;;;8.43;4.72;;;;;;;;;;1776855;80;21048;-66
2022/09/16 07:32:07;;;;;;;7.75;5.00;;;;;;;;;;1766140;80;21056;-66
2022/09/16 07:34:34;;;;;;;5.78;4.22;;;;;;;;;;1783818;80;21032;-67
2022/09/16 07:37:00;;;;;;;5.95;4.30;;;;;;;;;;1774651;80;21056;-66
2022/09/16 07:39:26;;;;;;;4.87;3.80;;;;;;;;;;1778234;80;21116;-66
2022/09/16 07:41:53;;;;;;;5.33;3.75;;;;;;;;;;1772068;80;21021;-67
2022/09/16 07:44:19;;;;;;;5.45;4.20;;;;;;;;;;1768964;81;21484;-67
2022/09/16 07:46:45;;;;;;;6.33;3.87;;;;;;;;;;1765050;80;21028;-66
2022/09/16 07:49:12;;;;;;;6.05;3.92;;;;;;;;;;1771453;80;21084;-67
2022/09/16 07:51:38;;;;;;;6.05;4.20;;;;;;;;;;1768066;80;21089;-67
2022/09/16 07:54:05;;;;;;;7.53;4.28;;;;;;;;;;1773294;80;20973;-67
2022/09/16 07:56:35;;;;;;;5.70;3.80;;;;;;;;;;1782601;80;21575;-67
2022/09/16 07:59:02;;;;;;;6.10;3.85;;;;;;;;;;1769777;80;21084;-66
2022/09/16 08:01:30;;;;;;;5.37;3.60;;;;;;;;;;1765446;79;21465;-66
2022/09/16 08:03:56;;;;;;;4.72;3.30;;;;;;;;;;1773835;80;21032;-65
2022/09/16 08:06:23;;;;;;;5.25;3.55;;;;;;;;;;1771589;80;22217;-65
2022/09/16 08:08:52;;;;;;;4.87;3.27;;;;;;;;;;1763629;80;21079;-68
2022/09/16 08:11:19;;;;;;;4.08;2.87;;;;;;;;;;1771109;80;21048;-67
2022/09/16 08:13:48;;;;;;;5.30;2.77;;;;;;;;;;1730006;82;21541;-66
2022/09/16 08:16:15;;;;;;;4.03;2.90;;;;;;;;;;1714813;82;21047;-67
2022/09/16 08:18:43;;;;;;;4.70;3.50;;;;;;;;;;1726461;83;21001;-67
2022/09/16 08:21:10;;;;;;;6.25;3.75;;;;;;;;;;1725998;82;21071;-67
2022/09/16 08:23:36;;;;;;;4.67;3.60;;;;;;;;;;1725478;82;21052;-67
2022/09/16 08:26:02;;;;;;;5.28;3.35;;;;;;;;;;1725297;83;21132;-67
2022/09/16 08:28:29;;;;;;;5.47;3.25;;;;;;;;;;1721432;83;21028;-66
2022/09/16 08:30:57;;;;;;;5.30;3.37;;;;;;;;;;1725339;83;21048;-67
2022/09/16 08:33:24;;;;;;;5.62;3.40;;;;;;;;;;1725369;81;21104;-67
2022/09/16 08:36:00;;;;;;;5.40;3.08;;;;;;;;;;1725977;81;21016;-66
2022/09/16 08:38:26;;;;;;;4.10;3.10;;;;;;;;;;1727001;82;21080;-69
2022/09/16 08:41:08;;;;;;;4.30;3.17;;;;;;;;;;1728655;81;21064;-67
2022/09/16 08:43:36;;;;;;;4.47;3.30;;;;;;;;;;1706791;83;21068;-67
2022/09/16 08:46:10;;;;;;;5.15;3.22;;;;;;;;;;1700577;83;21579;-66
2022/09/16 08:48:57;;;;;;;4.72;3.40;;;;;;;;;;1673336;83;21024;-67
2022/09/16 08:51:22;;;;;;;5.70;3.37;;;;;;;;;;1740179;81;21010;-65
2022/09/16 08:53:59;;;;;;;6.47;3.35;;;;;;;;;;1770793;80;20989;-65
2022/09/16 08:56:26;;;;;;;4.05;2.80;;;;;;;;;;1771775;80;21084;-67
2022/09/16 08:58:54;;;;;;;4.58;3.37;;;;;;;;;;1772085;80;21555;-66
2022/09/16 09:01:40;;;;;;;5.30;3.40;;;;;;;;;;1775754;80;21040;-66
2022/09/16 09:04:06;;;;;;;4.08;3.15;;;;;;;;;;1773900;80;21080;-67
2022/09/16 09:06:34;;;;;;;8.65;4.10;;;;;;;;;;1772072;80;21846;-67
2022/09/16 09:09:21;;;;;;;4.95;3.15;;;;;;;;;;1775197;80;22342;-67
2022/09/16 09:11:52;;;;;;;5.40;3.30;;;;;;;;;;1774324;80;21021;-66
2022/09/16 09:14:23;;;;;;;4.60;3.30;;;;;;;;;;1775188;80;21072;-66
2022/09/16 09:17:10;;;;;;;6.40;3.43;;;;;;;;;;1765011;80;21047;-67
2022/09/16 09:19:39;;;;;;;9.93;4.50;;;;;;;;;;1772575;80;21028;-67
2022/09/16 09:22:23;;;;;;;5.08;3.08;;;;;;;;;;1777511;80;21016;-67
2022/09/16 09:24:51;;;;;;;4.30;2.85;;;;;;;;;;1734859;81;21041;-68
2022/09/16 09:27:22;;;;;;;4.78;3.15;;;;;;;;;;1724887;81;21031;-67
2022/09/16 09:29:53;;;;;;;5.78;3.25;;;;;;;;;;1732337;81;20960;-68
2022/09/16 09:32:21;;;;;;;4.55;3.05;;;;;;;;;;1729010;81;21049;-68
2022/09/16 09:34:52;;;;;;;4.50;3.08;;;;;;;;;;1730059;81;21046;-66
2022/09/16 09:37:26;;;;;;;4.15;2.90;;;;;;;;;;1714664;83;21506;-66
2022/09/16 09:40:00;;;;;;;8.08;4.83;;;;;;;;;;1705697;83;21069;-66
2022/09/16 09:42:37;;;;;;;5.03;3.40;;;;;;;;;;1736554;81;20992;-66
2022/09/16 09:45:04;;;;;;;6.67;4.62;;;;;;;;;;1724871;83;21044;-66
2022/09/16 09:47:36;;;;;;;8.43;5.37;;;;;;;;;;1712573;82;20958;-67
2022/09/16 09:50:07;;;;;;;8.73;5.55;;;;;;;;;;1717131;82;21088;-67
2022/09/16 09:52:37;;;;;;;6.92;4.78;;;;;;;;;;1766744;80;20992;-66
2022/09/16 09:55:05;;;;;;;7.55;4.72;;;;;;;;;;1777497;80;20969;-66
2022/09/16 09:57:33;;;;;;;6.35;3.60;;;;;;;;;;1768947;80;21010;-66
2022/09/16 10:00:03;;;;;;;7.47;3.55;;;;;;;;;;1759500;80;21076;-66
2022/09/16 10:02:33;;;;;;;4.65;3.00;;;;;;;;;;1768231;80;21064;-66
2022/09/16 10:05:00;;;;;;;4.42;3.00;;;;;;;;;;1769291;80;21492;-66
2022/09/16 10:07:27;;;;;;;5.92;3.10;;;;;;;;;;1766854;80;21028;-66
2022/09/16 10:09:55;;;;;;;5.03;3.25;;;;;;;;;;1751567;80;21001;-67
2022/09/16 10:12:25;;;;;;;5.80;3.00;;;;;;;;;;1737170;82;21035;-67
2022/09/16 10:14:51;;;;;;;4.45;3.30;;;;;;;;;;1732652;82;21560;-68
2022/09/16 10:17:18;;;;;;;5.15;3.50;;;;;;;;;;1738339;82;21019;-67
2022/09/16 10:19:52;;;;;;;6.12;3.72;;;;;;;;;;1737288;82;21083;-67
2022/09/16 10:22:20;;;;;;;5.95;3.30;;;;;;;;;;1737739;82;21079;-66
2022/09/16 10:24:53;;;;;;;4.55;3.00;;;;;;;;;;1739097;82;21068;-67
2022/09/16 10:27:18;;;;;;;4.95;3.30;;;;;;;;;;1742259;82;21039;-68
2022/09/16 10:29:44;;;;;;;5.35;2.90;;;;;;;;;;1737782;82;21003;-68
2022/09/16 10:32:12;;;;;;;4.65;3.12;;;;;;;;;;1734535;80;20981;-67
2022/09/16 10:34:39;;;;;;;5.60;3.67;;;;;;;;;;1711547;82;21076;-68
2022/09/16 10:37:07;;;;;;;4.42;3.70;;;;;;;;;;1742491;81;21519;-67
2022/09/16 10:39:34;;;;;;;4.12;3.12;;;;;;;;;;1745420;81;21492;-68
2022/09/16 10:42:01;;;;;;;6.30;3.30;;;;;;;;;;1752485;80;21039;-67
2022/09/16 10:44:28;;;;;;;5.22;2.92;;;;;;;;;;1706684;82;21021;-68
2022/09/16 10:47:01;;;;;;;5.45;3.70;;;;;;;;;;1743611;81;21047;-67
2022/09/16 10:49:29;;;;;;;3.47;3.15;;;;;;;;;;1748873;80;22077;-67
2022/09/16 10:51:57;;;;;;;4.25;3.22;;;;;;;;;;1682285;84;21595;-72
2022/09/16 10:54:26;;;;;;;5.95;3.47;;;;;;;;;;1680221;84;21107;-73
2022/09/16 10:56:52;;;;;;;6.95;3.52;;;;;;;;;;1700707;84;21528;-73
2022/09/16 10:59:18;;;;;;;4.83;3.40;;;;;;;;;;1702514;84;20968;-73
2022/09/16 11:02:02;;;;;;;6.53;3.58;;;;;;;;;;1679300;85;21118;-73
2022/09/16 11:04:36;;;;;;;6.00;3.70;;;;;;;;;;1703611;84;21053;-74
2022/09/16 11:07:22;;;;;;;5.47;3.58;;;;;;;;;;1702467;84;20996;-73
2022/09/16 11:09:54;;;;;;;6.53;3.33;;;;;;;;;;1706696;81;20987;-74
2022/09/16 11:12:22;;;;;;;4.72;3.08;;;;;;;;;;1705849;83;21025;-73
2022/09/16 11:14:53;;;;;;;4.25;3.05;;;;;;;;;;1707301;82;21066;-73
2022/09/16 11:17:21;;;;;;;9.03;3.85;;;;;;;;;;1736296;82;21581;-74
2022/09/16 11:19:49;;;;;;;7.78;3.72;;;;;;;;;;1709255;84;21042;-73
2022/09/16 11:22:27;;;;;;;5.12;3.72;;;;;;;;;;1737930;82;21049;-72
2022/09/16 11:24:58;;;;;;;5.12;3.30;;;;;;;;;;1736713;81;21609;-73
2022/09/16 11:27:44;;;;;;;4.45;3.22;;;;;;;;;;1739841;81;21611;-72
2022/09/16 11:30:14;;;;;;;5.90;3.95;;;;;;;;;;1738546;82;21038;-73
2022/09/16 11:32:45;;;;;;;10.58;6.55;;;;;;;;;;1708884;82;21038;-73
2022/09/16 11:35:28;;;;;;;8.33;4.92;;;;;;;;;;1738670;81;20994;-73
2022/09/16 11:37:59;;;;;;;5.17;3.87;;;;;;;;;;1706558;84;21042;-72
2022/09/16 11:40:33;;;;;;;4.35;3.10;;;;;;;;;;1699243;82;21707;-71
2022/09/16 11:43:10;;;;;;;6.12;3.20;;;;;;;;;;1709777;82;21129;-71
2022/09/16 11:45:55;;;;;;;5.03;3.15;;;;;;;;;;1735925;82;21077;-71
2022/09/16 11:48:26;;;;;;;4.15;2.95;;;;;;;;;;1711888;82;21076;-68
2022/09/16 11:50:54;;;;;;;4.87;3.05;;;;;;;;;;1738365;82;21049;-68
2022/09/16 11:53:24;;;;;;;4.53;3.10;;;;;;;;;;1737463;82;21053;-67
2022/09/16 11:56:56;;;;;;;4.42;3.20;;;;;;;;;;1804730;79;22878;-67
2022/09/16 11:59:24;;;;;;;5.30;2.83;;;;;;;;;;1765410;80;22231;-66
2022/09/16 12:01:52;;;;;;;5.58;2.90;;;;;;;;;;1737859;81;21108;-65
2022/09/16 12:04:25;;;;;;;4.87;3.27;;;;;;;;;;1715886;82;21552;-67
2022/09/16 12:06:57;;;;;;;5.42;2.77;;;;;;;;;;1714762;83;21080;-66
2022/09/16 12:09:39;;;;;;;4.62;3.08;;;;;;;;;;1716715;83;21120;-66
2022/09/16 12:12:19;;;;;;;4.87;3.40;;;;;;;;;;1728705;83;21044;-66
2022/09/16 12:14:48;;;;;;;4.70;3.15;;;;;;;;;;1705835;83;21084;-67
2022/09/16 12:17:19;;;;;;;4.62;3.30;;;;;;;;;;1699589;83;21072;-66
2022/09/16 12:19:47;;;;;;;5.80;3.45;;;;;;;;;;1705872;82;21001;-66
2022/09/16 12:22:18;;;;;;;5.08;2.72;;;;;;;;;;1729611;82;21070;-65
2022/09/16 12:24:49;;;;;;;4.37;3.05;;;;;;;;;;1722929;82;21571;-66
2022/09/16 12:27:33;;;;;;;5.95;3.22;;;;;;;;;;1723375;82;21077;-66
2022/09/16 12:30:05;;;;;;;7.80;3.25;;;;;;;;;;1725732;83;21029;-66
2022/09/16 12:32:36;;;;;;;4.62;2.98;;;;;;;;;;1703553;83;20989;-66
2022/09/16 12:35:04;;;;;;;3.52;2.52;;;;;;;;;;1704897;83;21105;-66
2022/09/16 12:37:35;;;;;;;3.83;2.98;;;;;;;;;;1723686;82;21123;-66
2022/09/16 12:40:02;;;;;;;4.58;2.75;;;;;;;;;;1729047;82;22101;-66
2022/09/16 12:42:36;;;;;;;5.87;2.95;;;;;;;;;;1722638;82;21508;-66
2022/09/16 12:45:16;;;;;;;4.53;3.20;;;;;;;;;;1717364;82;21073;-68
2022/09/16 12:47:54;;;;;;;5.50;3.12;;;;;;;;;;1719443;81;21096;-66
2022/09/16 12:50:39;;;;;;;4.42;2.83;;;;;;;;;;1726643;82;21074;-67
2022/09/16 12:53:24;;;;;;;4.35;3.00;;;;;;;;;;1738972;81;21040;-67
2022/09/16 12:55:58;;;;;;;6.30;2.98;;;;;;;;;;1713973;83;21052;-66
2022/09/16 12:58:35;;;;;;;4.62;2.58;;;;;;;;;;1715051;82;21060;-67
2022/09/16 13:01:03;;;;;;;3.45;2.67;;;;;;;;;;1722106;82;21612;-67
2022/09/16 13:03:30;;;;;;;3.62;2.70;;;;;;;;;;1721360;82;21037;-67
2022/09/16 13:05:57;;;;;;;5.97;3.25;;;;;;;;;;1716733;82;21544;-67
2022/09/16 13:08:27;;;;;;;3.72;2.72;;;;;;;;;;1727140;82;21076;-66
2022/09/16 13:10:58;;;;;;;3.52;2.60;;;;;;;;;;1724831;82;21046;-67
2022/09/16 13:13:32;;;;;;;6.70;2.90;;;;;;;;;;1731459;81;21052;-66
2022/09/16 13:15:59;;;;;;;5.80;2.90;;;;;;;;;;1725194;81;21583;-67
2022/09/16 13:18:27;;;;;;;4.87;2.60;;;;;;;;;;1724507;82;20991;-67
2022/09/16 13:20:57;;;;;;;3.35;2.30;;;;;;;;;;1719899;81;21149;-66
2022/09/16 13:23:31;;;;;;;3.12;2.40;;;;;;;;;;1725192;81;21020;-66
2022/09/16 13:25:59;;;;;;;3.27;2.40;;;;;;;;;;1723837;82;21587;-67
2022/09/16 13:28:38;;;;;;;3.05;2.50;;;;;;;;;;1713988;83;21655;-67
2022/09/16 13:31:13;;;;;;;4.47;2.90;;;;;;;;;;1716918;82;21002;-66
2022/09/16 13:33:39;;;;;;;4.15;2.47;;;;;;;;;;1714451;83;21056;-67
2022/09/16 13:36:13;;;;;;;4.40;2.67;;;;;;;;;;1655452;86;21081;-67
2022/09/16 13:38:40;;;;;;;3.52;2.47;;;;;;;;;;1657165;86;21529;-66
2022/09/16 13:41:08;;;;;;;4.80;2.70;;;;;;;;;;1672503;85;21052;-65
2022/09/16 13:43:36;;;;;;;4.15;2.50;;;;;;;;;;1667791;85;21084;-66
2022/09/16 13:46:03;;;;;;;5.55;2.87;;;;;;;;;;1670459;85;21064;-68
2022/09/16 13:48:32;;;;;;;5.37;3.00;;;;;;;;;;1656760;86;21081;-67
2022/09/16 13:50:59;;;;;;;6.47;2.83;;;;;;;;;;1654726;86;21097;-67
2022/09/16 13:53:29;;;;;;;5.33;2.40;;;;;;;;;;1655357;86;21049;-66
2022/09/16 13:55:56;;;;;;;3.72;2.55;;;;;;;;;;1656388;86;22113;-68
2022/09/16 13:58:24;;;;;;;4.33;2.40;;;;;;;;;;1652647;86;21080;-67
2022/09/16 14:01:01;;;;;;;5.05;2.70;;;;;;;;;;1650019;85;21168;-67
2022/09/16 14:03:44;;;;;;;4.53;2.62;;;;;;;;;;1709436;83;21556;-68
2022/09/16 14:06:24;;;;;;;4.83;2.52;;;;;;;;;;1670519;85;20980;-67
2022/09/16 14:08:53;;;;;;;4.53;2.62;;;;;;;;;;1699607;83;21060;-67
2022/09/16 14:11:37;;;;;;;5.47;3.02;;;;;;;;;;1706341;83;21032;-67
2022/09/16 14:14:09;;;;;;;4.30;2.80;;;;;;;;;;1708935;83;21104;-67
2022/09/16 14:16:38;;;;;;;3.58;2.25;;;;;;;;;;1708951;83;21580;-67
2022/09/16 14:19:06;;;;;;;3.35;2.42;;;;;;;;;;1708869;83;21572;-67
2022/09/16 14:21:32;;;;;;;3.67;2.25;;;;;;;;;;1694912;83;21061;-67
2022/09/16 14:24:12;;;;;;;3.00;2.33;;;;;;;;;;1706908;83;21009;-67
2022/09/16 14:26:39;;;;;;;3.40;2.50;;;;;;;;;;1713105;82;21021;-66
2022/09/16 14:29:05;;;;;;;4.00;2.50;;;;;;;;;;1685635;83;21069;-67
2022/09/16 14:31:32;;;;;;;3.33;2.22;;;;;;;;;;1713359;83;21037;-68
2022/09/16 14:34:00;;;;;;;6.65;2.70;;;;;;;;;;1706679;83;21505;-67
2022/09/16 14:36:29;;;;;;;4.53;2.80;;;;;;;;;;1705069;82;21040;-67
2022/09/16 14:38:57;;;;;;;4.05;2.80;;;;;;;;;;1709093;82;21025;-66
2022/09/16 14:41:25;;;;;;;4.80;2.80;;;;;;;;;;1710354;83;21088;-67
2022/09/16 14:43:52;;;;;;;3.90;2.60;;;;;;;;;;1711402;83;21005;-67
2022/09/16 14:46:18;;;;;;;3.08;2.30;;;;;;;;;;1715068;82;21084;-67
2022/09/16 14:48:44;;;;;;;4.70;2.75;;;;;;;;;;1716084;82;21085;-66
2022/09/16 14:51:18;;;;;;;3.22;2.50;;;;;;;;;;1719714;82;21045;-67
2022/09/16 14:53:46;;;;;;;6.08;2.85;;;;;;;;;;1720245;82;21103;-68
2022/09/16 14:56:17;;;;;;;4.03;2.52;;;;;;;;;;1705889;83;21025;-68
2022/09/16 14:58:43;;;;;;;5.20;2.70;;;;;;;;;;1699243;83;21033;-67
2022/09/16 15:01:11;;;;;;;5.40;2.80;;;;;;;;;;1697259;83;21089;-67